Time;durP1;ratioP1;P1;durP2;ratioP2;P2;SDS_P1;SDS_P2;PMS_P1;PMS_P2;Temp;Humidity;BMP_temperature;BMP_pressure;BME280_temperature;BME280_humidity;BME280_pressure;Samples;Min_cycle;Max_cycle;Signal;HPM_P1;HPM_P2
2021/11/07 00:04:59;;;;;;;61.60;12.25;;;2.50;99.90;;;;;;4971192;28;20149;-75
2021/11/07 00:07:30;;;;;;;36.90;13.02;;;2.50;99.90;;;;;;4954820;28;20160;-74
2021/11/07 00:10:21;;;;;;;76.03;14.55;;;2.60;99.90;;;;;;4954600;28;20057;-74
2021/11/07 00:12:49;;;;;;;40.05;15.23;;;2.60;99.90;;;;;;4957464;28;20022;-74
2021/11/07 00:15:17;;;;;;;54.70;16.23;;;2.70;99.90;;;;;;4954427;28;20738;-75
2021/11/07 00:17:49;;;;;;;126.53;16.00;;;2.70;99.90;;;;;;4953433;28;20073;-75
2021/11/07 00:20:23;;;;;;;81.95;13.05;;;2.70;99.90;;;;;;4954376;28;20037;-74
2021/11/07 00:23:19;;;;;;;104.88;12.95;;;2.70;99.90;;;;;;4979640;28;20030;-74
2021/11/07 00:25:45;;;;;;;120.80;13.73;;;2.70;99.90;;;;;;4989321;28;20033;-74
2021/11/07 00:28:22;;;;;;;58.83;12.05;;;2.60;99.90;;;;;;4970922;28;20027;-74
2021/11/07 00:31:02;;;;;;;148.77;13.50;;;2.60;99.90;;;;;;4967125;28;20098;-74
2021/11/07 00:36:18;;;;;;;108.10;13.75;;;2.50;99.90;;;;;;4967569;28;20046;-75
2021/11/07 00:46:52;;;;;;;47.33;14.98;;;2.50;99.90;;;;;;4971089;28;20360;-74
2021/11/07 00:49:32;;;;;;;54.57;14.40;;;2.50;99.90;;;;;;4966460;28;20027;-74
2021/11/07 01:02:25;;;;;;;40.35;13.40;;;2.30;99.90;;;;;;4979676;28;20054;-74
2021/11/07 01:04:51;;;;;;;36.30;12.95;;;2.30;99.90;;;;;;4938705;28;20031;-74
2021/11/07 01:07:20;;;;;;;38.08;12.95;;;2.30;99.90;;;;;;4953329;28;20309;-74
2021/11/07 01:09:46;;;;;;;36.47;13.75;;;2.30;99.90;;;;;;4966707;28;20383;-74
2021/11/07 01:12:12;;;;;;;35.45;13.15;;;2.30;99.90;;;;;;4973157;28;20019;-74
2021/11/07 01:14:38;;;;;;;42.00;13.85;;;2.20;99.90;;;;;;4978837;28;20046;-74
2021/11/07 01:17:04;;;;;;;38.67;13.45;;;2.20;99.90;;;;;;4968475;28;20033;-75
2021/11/07 01:19:30;;;;;;;25.60;11.85;;;2.20;99.90;;;;;;4956352;28;20074;-75
2021/11/07 01:21:59;;;;;;;30.10;12.48;;;2.20;99.90;;;;;;4967256;28;20062;-74
2021/11/07 01:24:32;;;;;;;28.95;12.75;;;2.20;99.90;;;;;;4974126;28;20037;-74
2021/11/07 01:27:10;;;;;;;30.08;13.30;;;2.20;99.90;;;;;;4974582;28;20022;-74
2021/11/07 01:29:41;;;;;;;38.35;13.48;;;2.10;99.90;;;;;;4972676;28;20026;-74
2021/11/07 01:32:07;;;;;;;30.88;12.95;;;2.10;99.90;;;;;;4977081;28;20081;-74
2021/11/07 01:37:07;;;;;;;26.98;11.88;;;2.10;99.90;;;;;;4966809;28;20117;-74
2021/11/07 01:39:51;;;;;;;30.40;12.68;;;2.10;99.90;;;;;;4974142;28;20077;-74
2021/11/07 01:42:30;;;;;;;23.50;11.77;;;2.10;99.90;;;;;;4981946;28;20022;-74
2021/11/07 01:45:00;;;;;;;28.23;12.10;;;2.10;99.90;;;;;;4956016;28;20058;-74
2021/11/07 01:47:26;;;;;;;24.17;11.18;;;2.10;99.90;;;;;;4956972;28;20046;-74
2021/11/07 01:49:52;;;;;;;24.75;12.10;;;2.10;99.90;;;;;;4952601;28;20034;-74
2021/11/07 01:52:19;;;;;;;25.88;11.80;;;2.10;99.90;;;;;;4950790;28;20022;-74
2021/11/07 01:55:05;;;;;;;24.52;11.63;;;2.10;99.90;;;;;;4955178;28;20037;-74
2021/11/07 01:57:32;;;;;;;25.45;12.35;;;2.00;99.90;;;;;;4973989;28;20034;-74
2021/11/07 02:00:01;;;;;;;25.67;11.73;;;2.00;99.90;;;;;;4956673;28;20057;-74
2021/11/07 02:02:34;;;;;;;23.60;12.27;;;2.00;99.90;;;;;;4972977;28;20033;-74
2021/11/07 02:05:00;;;;;;;24.88;12.20;;;2.00;99.90;;;;;;4977449;28;20077;-74
2021/11/07 02:07:26;;;;;;;27.13;12.63;;;2.00;99.90;;;;;;4984146;28;20197;-74
2021/11/07 02:09:52;;;;;;;27.92;12.98;;;2.00;99.90;;;;;;4978429;28;20077;-73
2021/11/07 02:12:18;;;;;;;25.83;11.88;;;2.10;99.90;;;;;;4975758;28;20022;-74
2021/11/07 02:14:44;;;;;;;32.50;12.70;;;2.10;99.90;;;;;;4973172;28;20110;-74
2021/11/07 02:17:11;;;;;;;26.10;12.43;;;2.10;99.90;;;;;;4955544;28;20122;-74
2021/11/07 02:19:37;;;;;;;23.85;12.23;;;2.10;99.90;;;;;;4954308;28;20441;-74
2021/11/07 02:22:04;;;;;;;24.58;12.48;;;2.10;99.90;;;;;;4973265;28;20038;-74
2021/11/07 02:24:30;;;;;;;24.15;12.13;;;2.10;99.90;;;;;;4972457;28;20041;-74
2021/11/07 02:27:00;;;;;;;28.20;13.20;;;2.10;99.90;;;;;;4973839;28;20066;-74
2021/11/07 02:29:28;;;;;;;26.15;12.35;;;2.10;99.90;;;;;;4971682;28;20027;-73
2021/11/07 02:31:56;;;;;;;26.40;12.40;;;2.10;99.90;;;;;;4964001;28;20610;-74
2021/11/07 02:34:22;;;;;;;22.50;11.35;;;2.10;99.90;;;;;;4973354;28;20034;-75
2021/11/07 02:36:49;;;;;;;31.13;12.60;;;2.10;99.90;;;;;;4946174;29;20086;-74
2021/11/07 02:39:16;;;;;;;28.10;12.35;;;2.10;99.90;;;;;;4966046;28;20058;-74
2021/11/07 02:41:42;;;;;;;27.40;12.13;;;2.10;99.90;;;;;;4965087;28;20368;-74
2021/11/07 02:44:08;;;;;;;24.33;11.30;;;2.20;99.90;;;;;;4972668;28;20055;-74
2021/11/07 02:46:34;;;;;;;27.85;12.77;;;2.10;99.90;;;;;;4972787;28;20023;-74
2021/11/07 02:49:03;;;;;;;29.27;12.68;;;2.10;99.90;;;;;;4947731;28;20027;-74
2021/11/07 02:51:36;;;;;;;25.25;12.50;;;2.10;99.90;;;;;;4960488;28;20025;-74
2021/11/07 02:54:05;;;;;;;26.98;12.68;;;2.20;99.90;;;;;;4972325;28;20019;-74
2021/11/07 02:56:30;;;;;;;28.10;11.73;;;2.20;99.90;;;;;;4955377;28;20102;-74
2021/11/07 02:58:57;;;;;;;25.63;11.95;;;2.20;99.90;;;;;;4975519;28;20436;-74
2021/11/07 03:01:24;;;;;;;29.80;12.57;;;2.20;99.90;;;;;;4973125;28;20027;-74
2021/11/07 03:03:54;;;;;;;34.33;13.00;;;2.20;99.90;;;;;;4954775;28;20039;-75
2021/11/07 03:06:19;;;;;;;31.27;13.40;;;2.20;99.90;;;;;;4972714;28;20475;-74
2021/11/07 03:08:49;;;;;;;28.50;12.15;;;2.20;99.90;;;;;;4970881;28;20115;-74
2021/11/07 03:11:15;;;;;;;30.00;13.38;;;2.20;99.90;;;;;;4974342;28;20033;-74
2021/11/07 03:13:41;;;;;;;32.05;13.70;;;2.20;99.90;;;;;;4964844;28;20066;-74
2021/11/07 03:16:09;;;;;;;28.67;13.90;;;2.20;99.90;;;;;;4961743;28;20054;-74
2021/11/07 03:18:36;;;;;;;32.38;13.45;;;2.20;99.90;;;;;;4955484;28;20035;-74
2021/11/07 03:21:07;;;;;;;31.45;13.32;;;2.20;99.90;;;;;;4972648;28;20034;-74
2021/11/07 03:23:43;;;;;;;30.95;12.95;;;2.20;99.90;;;;;;4964560;28;20049;-74
2021/11/07 03:26:14;;;;;;;31.50;13.73;;;2.20;99.90;;;;;;4955024;28;20431;-74
2021/11/07 03:28:42;;;;;;;34.53;13.43;;;2.20;99.90;;;;;;4970220;28;20018;-74
2021/11/07 03:33:49;;;;;;;29.75;12.38;;;2.20;99.90;;;;;;4982304;28;20551;-74
2021/11/07 03:36:17;;;;;;;31.35;13.55;;;2.20;99.90;;;;;;4970912;28;20073;-74
2021/11/07 03:38:44;;;;;;;30.75;12.68;;;2.20;99.90;;;;;;4972022;28;20030;-74
2021/11/07 03:41:11;;;;;;;31.80;13.57;;;2.20;99.90;;;;;;4972110;28;20034;-74
2021/11/07 03:43:37;;;;;;;31.25;13.45;;;2.20;99.90;;;;;;4953097;28;20671;-74
2021/11/07 03:46:03;;;;;;;34.17;14.40;;;2.20;99.90;;;;;;4971739;28;20027;-74
2021/11/07 03:48:29;;;;;;;33.63;13.60;;;2.20;99.90;;;;;;4972545;28;20027;-74
2021/11/07 03:50:54;;;;;;;32.00;13.85;;;2.20;99.90;;;;;;4959466;28;20027;-74
2021/11/07 03:53:20;;;;;;;30.83;12.68;;;2.20;99.90;;;;;;4952322;28;20356;-74
2021/11/07 03:55:46;;;;;;;32.95;13.40;;;2.20;99.90;;;;;;4971921;28;20027;-74
2021/11/07 03:58:12;;;;;;;33.63;13.98;;;2.20;99.90;;;;;;4973406;28;20037;-74
2021/11/07 04:00:38;;;;;;;35.33;13.40;;;2.20;99.90;;;;;;4972093;28;20035;-74
2021/11/07 04:03:05;;;;;;;37.22;13.85;;;2.20;99.90;;;;;;4953767;28;20049;-74
2021/11/07 04:05:32;;;;;;;37.20;14.35;;;2.20;99.90;;;;;;4952806;28;20030;-74
2021/11/07 04:07:58;;;;;;;38.25;14.57;;;2.20;99.90;;;;;;4971946;28;20029;-74
2021/11/07 04:10:25;;;;;;;35.58;14.88;;;2.20;99.90;;;;;;4971520;28;20389;-74
2021/11/07 04:12:51;;;;;;;36.67;15.60;;;2.20;99.90;;;;;;4953497;28;20034;-74
2021/11/07 04:15:17;;;;;;;39.30;13.88;;;2.20;99.90;;;;;;4954505;28;20189;-74
2021/11/07 04:17:43;;;;;;;37.80;14.70;;;2.20;99.90;;;;;;4950256;29;20110;-74
2021/11/07 04:20:10;;;;;;;39.40;15.15;;;2.20;99.90;;;;;;4959330;28;20464;-74
2021/11/07 04:22:36;;;;;;;31.48;14.52;;;2.20;99.90;;;;;;4959883;28;20038;-74
2021/11/07 04:25:02;;;;;;;32.47;14.30;;;2.20;99.90;;;;;;4971196;28;20027;-74
2021/11/07 04:27:28;;;;;;;33.95;15.18;;;2.10;99.90;;;;;;4971685;28;20050;-74
2021/11/07 04:29:53;;;;;;;35.45;14.43;;;2.10;99.90;;;;;;4955970;28;20095;-74
2021/11/07 04:32:19;;;;;;;37.25;15.52;;;2.10;99.90;;;;;;4954894;28;20435;-74
2021/11/07 04:34:45;;;;;;;31.13;13.18;;;2.10;99.90;;;;;;4971188;28;20030;-74
2021/11/07 04:37:11;;;;;;;36.45;14.90;;;2.10;99.90;;;;;;4964093;28;20087;-74
2021/11/07 04:39:37;;;;;;;31.70;14.85;;;2.10;99.90;;;;;;4968971;28;20052;-73
2021/11/07 04:42:03;;;;;;;31.42;12.85;;;2.10;99.90;;;;;;4970797;28;20479;-74
2021/11/07 04:44:30;;;;;;;38.17;14.45;;;2.10;99.90;;;;;;4952808;28;20419;-73
2021/11/07 04:46:56;;;;;;;31.40;12.95;;;2.10;99.90;;;;;;4953855;28;20057;-74
2021/11/07 04:49:22;;;;;;;31.55;13.32;;;2.10;99.90;;;;;;4963245;28;20104;-74
2021/11/07 04:51:47;;;;;;;33.95;14.05;;;2.20;99.90;;;;;;4971353;28;20031;-74
2021/11/07 04:54:13;;;;;;;35.40;14.77;;;2.10;99.90;;;;;;4970307;28;20023;-74
2021/11/07 04:56:40;;;;;;;35.28;15.10;;;2.10;99.90;;;;;;4970634;28;20027;-74
2021/11/07 04:59:06;;;;;;;34.10;14.27;;;2.10;99.90;;;;;;4974475;28;20065;-74
2021/11/07 05:01:31;;;;;;;38.92;14.45;;;2.10;99.90;;;;;;4963569;28;20026;-74
2021/11/07 05:03:57;;;;;;;35.15;14.25;;;2.10;99.90;;;;;;4975224;28;20068;-74
2021/11/07 05:06:23;;;;;;;39.47;14.95;;;2.10;99.90;;;;;;4969359;28;20116;-74
2021/11/07 05:08:49;;;;;;;29.35;13.32;;;2.10;99.90;;;;;;4971132;28;20478;-74
2021/11/07 05:11:15;;;;;;;32.75;13.73;;;2.10;99.90;;;;;;4953770;28;20026;-74
2021/11/07 05:13:41;;;;;;;36.03;13.82;;;2.10;99.90;;;;;;4952439;28;20033;-74
2021/11/07 05:16:07;;;;;;;38.47;14.48;;;2.10;99.90;;;;;;4953499;28;20590;-74
2021/11/07 05:18:32;;;;;;;36.28;14.57;;;2.10;99.90;;;;;;4965653;23;20046;-69
2021/11/07 05:20:58;;;;;;;40.85;15.02;;;2.10;99.90;;;;;;4970599;28;20019;-67
2021/11/07 05:23:24;;;;;;;36.80;14.20;;;2.10;99.90;;;;;;4969559;28;20391;-69
2021/11/07 05:25:50;;;;;;;32.05;13.80;;;2.10;99.90;;;;;;4968754;28;20134;-69
2021/11/07 05:28:16;;;;;;;35.03;14.00;;;2.10;99.90;;;;;;4970060;28;20031;-69
2021/11/07 05:30:42;;;;;;;37.40;15.57;;;2.10;99.90;;;;;;4955317;28;20027;-69
2021/11/07 05:33:08;;;;;;;35.65;14.60;;;2.10;99.90;;;;;;4949573;28;20061;-67
2021/11/07 05:35:33;;;;;;;39.35;15.32;;;2.10;99.90;;;;;;4965187;28;20038;-67
2021/11/07 05:38:00;;;;;;;35.08;14.00;;;2.10;99.90;;;;;;4963655;28;20610;-67
2021/11/07 05:40:25;;;;;;;36.20;14.43;;;2.00;99.90;;;;;;4970095;28;20118;-67
2021/11/07 05:42:51;;;;;;;32.38;14.18;;;2.10;99.90;;;;;;4964991;28;20386;-67
2021/11/07 05:45:18;;;;;;;35.17;14.65;;;2.00;99.90;;;;;;4969332;28;20023;-67
2021/11/07 05:47:44;;;;;;;34.10;13.82;;;2.10;99.90;;;;;;4969872;28;20055;-67
2021/11/07 05:50:11;;;;;;;38.30;14.88;;;2.10;99.90;;;;;;4968438;28;20049;-67
2021/11/07 05:52:37;;;;;;;37.30;14.77;;;2.10;99.90;;;;;;4965616;28;20070;-67
2021/11/07 05:55:04;;;;;;;35.42;14.50;;;2.10;99.90;;;;;;4969161;28;20034;-69
2021/11/07 05:57:29;;;;;;;35.20;14.38;;;2.10;99.90;;;;;;4969507;28;20438;-69
2021/11/07 05:59:55;;;;;;;34.58;13.70;;;2.00;99.90;;;;;;4969851;28;20148;-67
2021/11/07 06:02:21;;;;;;;35.47;15.32;;;2.00;99.90;;;;;;4969722;28;20023;-67
2021/11/07 06:04:48;;;;;;;31.17;14.15;;;2.00;99.90;;;;;;4967689;28;20039;-66
2021/11/07 06:07:14;;;;;;;33.78;14.40;;;2.00;99.90;;;;;;4970436;28;20120;-70
2021/11/07 06:09:39;;;;;;;33.83;15.15;;;1.90;99.90;;;;;;4971930;28;20161;-67
2021/11/07 06:12:06;;;;;;;35.03;14.57;;;1.90;99.90;;;;;;4972783;28;20102;-67
2021/11/07 06:14:31;;;;;;;31.38;14.68;;;1.90;99.90;;;;;;4971852;28;20023;-67
2021/11/07 06:16:57;;;;;;;35.30;14.65;;;1.90;99.90;;;;;;4973310;28;20542;-67
2021/11/07 06:19:22;;;;;;;37.38;15.05;;;1.90;99.90;;;;;;4967092;28;20057;-67
2021/11/07 06:21:50;;;;;;;31.42;14.70;;;1.90;99.90;;;;;;4971787;28;20022;-66
2021/11/07 06:24:21;;;;;;;28.17;13.40;;;1.90;99.90;;;;;;4972190;28;20030;-67
2021/11/07 06:26:47;;;;;;;31.42;13.60;;;1.90;99.90;;;;;;4967466;28;20031;-67
2021/11/07 06:29:12;;;;;;;30.48;14.90;;;1.90;99.90;;;;;;4971300;28;20023;-67
2021/11/07 06:31:38;;;;;;;29.17;14.32;;;2.00;99.90;;;;;;4973318;28;20023;-67
2021/11/07 06:34:05;;;;;;;35.50;14.63;;;1.90;99.90;;;;;;4971638;28;20043;-67
2021/11/07 06:36:31;;;;;;;31.65;13.40;;;2.00;99.90;;;;;;4971757;28;20050;-68
2021/11/07 06:38:58;;;;;;;32.60;14.43;;;2.00;99.90;;;;;;4973393;28;20026;-67
2021/11/07 06:41:23;;;;;;;35.30;15.60;;;2.10;99.90;;;;;;4972556;28;20789;-67
2021/11/07 06:43:49;;;;;;;30.55;13.63;;;2.10;99.90;;;;;;4970985;28;20023;-67
2021/11/07 06:46:14;;;;;;;27.85;13.75;;;2.20;99.90;;;;;;4972811;28;20062;-67
2021/11/07 06:48:41;;;;;;;26.23;13.40;;;2.20;99.90;;;;;;4969276;28;20110;-67
2021/11/07 06:51:07;;;;;;;25.85;13.55;;;2.20;99.90;;;;;;4966621;28;20039;-67
2021/11/07 06:53:35;;;;;;;26.15;13.18;;;2.30;99.90;;;;;;4971150;28;20181;-67
2021/11/07 06:56:00;;;;;;;25.95;13.50;;;2.40;99.90;;;;;;4968025;28;20065;-67
2021/11/07 06:58:26;;;;;;;17.80;10.73;;;2.70;99.90;;;;;;4969836;28;20060;-67
2021/11/07 07:00:52;;;;;;;16.73;9.52;;;3.10;99.90;;;;;;4971225;28;20023;-67
2021/11/07 07:03:18;;;;;;;12.85;8.38;;;3.40;99.90;;;;;;4971545;28;20038;-66
2021/11/07 07:05:43;;;;;;;14.57;8.88;;;3.60;99.90;;;;;;4943665;28;20600;-67
2021/11/07 07:08:13;;;;;;;15.07;10.07;;;3.90;99.90;;;;;;4971949;28;20038;-67
2021/11/07 07:11:01;;;;;;;12.70;8.63;;;4.00;99.90;;;;;;4972668;28;20120;-67
2021/11/07 07:13:35;;;;;;;14.63;8.65;;;4.10;99.90;;;;;;4967231;28;20062;-66
2021/11/07 07:16:25;;;;;;;12.93;8.25;;;4.40;99.90;;;;;;4972475;28;20026;-66
2021/11/07 07:19:09;;;;;;;13.52;8.32;;;4.60;99.90;;;;;;4963233;28;20486;-66
2021/11/07 07:22:00;;;;;;;12.63;8.23;;;4.60;99.90;;;;;;4969481;28;20023;-71
2021/11/07 07:24:49;;;;;;;12.77;7.93;;;4.60;99.90;;;;;;4971093;28;20030;-67
2021/11/07 07:34:54;;;;;;;13.60;8.77;;;4.50;99.90;;;;;;4975237;28;20070;-67
2021/11/07 07:37:21;;;;;;;12.75;8.43;;;4.50;99.90;;;;;;4973279;28;20479;-67
2021/11/07 07:39:47;;;;;;;12.07;8.57;;;4.50;99.90;;;;;;4988442;28;20403;-67
2021/11/07 07:42:13;;;;;;;13.13;8.68;;;4.60;99.90;;;;;;4972441;28;20363;-67
2021/11/07 07:44:38;;;;;;;12.02;7.82;;;4.60;99.90;;;;;;4986556;28;20030;-67
2021/11/07 07:47:04;;;;;;;12.50;8.32;;;4.70;99.90;;;;;;4975755;28;20027;-67
2021/11/07 07:49:30;;;;;;;11.82;7.68;;;4.80;99.90;;;;;;4964883;28;20663;-67
2021/11/07 07:51:56;;;;;;;13.88;8.32;;;4.80;99.90;;;;;;4965387;28;20081;-67
2021/11/07 07:54:22;;;;;;;15.13;9.15;;;4.70;99.90;;;;;;4980910;28;20027;-67
2021/11/07 07:56:48;;;;;;;15.43;9.70;;;4.60;99.90;;;;;;4971765;28;20056;-66
2021/11/07 07:59:15;;;;;;;19.15;9.20;;;4.60;99.90;;;;;;4965511;28;20116;-66
2021/11/07 08:01:41;;;;;;;15.10;10.02;;;4.40;99.90;;;;;;4974264;28;20093;-68
2021/11/07 08:04:07;;;;;;;15.35;9.38;;;4.40;99.90;;;;;;4990493;28;20771;-66
2021/11/07 08:06:33;;;;;;;16.75;9.70;;;4.30;99.90;;;;;;4981449;28;20037;-66
2021/11/07 08:08:59;;;;;;;17.17;10.25;;;4.20;99.90;;;;;;4959802;28;20102;-66
2021/11/07 08:11:25;;;;;;;18.77;10.90;;;4.20;99.90;;;;;;4962156;28;20027;-66
2021/11/07 08:13:52;;;;;;;16.63;10.35;;;4.20;99.90;;;;;;4962126;28;20038;-66
2021/11/07 08:16:23;;;;;;;15.60;10.10;;;4.10;99.90;;;;;;4983642;28;20081;-67
2021/11/07 08:18:50;;;;;;;16.67;10.07;;;4.10;99.90;;;;;;4964246;28;20031;-67
2021/11/07 08:21:17;;;;;;;21.65;12.48;;;4.10;99.90;;;;;;4962932;28;20050;-68
2021/11/07 08:23:46;;;;;;;18.33;10.82;;;4.10;99.90;;;;;;4970306;28;20019;-67
2021/11/07 08:26:13;;;;;;;20.05;10.57;;;4.20;99.90;;;;;;4971589;28;20077;-67
2021/11/07 08:28:39;;;;;;;17.35;10.73;;;4.20;99.90;;;;;;4968821;28;20077;-67
2021/11/07 08:31:12;;;;;;;17.08;10.75;;;4.30;99.90;;;;;;4967781;28;20023;-67
2021/11/07 08:33:39;;;;;;;16.75;8.73;;;4.30;99.90;;;;;;4967779;28;20470;-67
2021/11/07 08:36:12;;;;;;;13.90;8.90;;;4.40;99.90;;;;;;4966106;28;20054;-68
2021/11/07 08:38:46;;;;;;;13.48;8.82;;;4.50;99.90;;;;;;4971193;28;20023;-68
2021/11/07 08:41:14;;;;;;;14.88;8.85;;;4.50;99.90;;;;;;4961605;28;20039;-68
2021/11/07 09:02:50;;;;;;;13.50;9.18;;;4.90;99.90;;;;;;4970154;28;20459;-67
2021/11/07 09:05:19;;;;;;;13.32;8.50;;;4.80;99.90;;;;;;4968627;28;20118;-67
2021/11/07 09:10:22;;;;;;;15.48;9.38;;;4.90;99.90;;;;;;4970929;28;20086;-67
2021/11/07 09:12:49;;;;;;;11.77;8.07;;;5.00;99.90;;;;;;4969827;28;20101;-67
2021/11/07 09:15:18;;;;;;;11.70;7.75;;;5.10;99.90;;;;;;4971130;28;20037;-66
2021/11/07 09:17:45;;;;;;;10.93;7.72;;;5.20;99.90;;;;;;4967546;28;20638;-67
2021/11/07 09:20:16;;;;;;;10.85;7.63;;;5.20;99.90;;;;;;4964831;28;20417;-67
2021/11/07 09:22:49;;;;;;;10.63;7.22;;;5.30;99.90;;;;;;4969591;28;20088;-67
2021/11/07 09:25:37;;;;;;;11.73;7.55;;;5.30;99.90;;;;;;4959328;28;20027;-67
2021/11/07 09:28:12;;;;;;;11.35;7.15;;;5.40;99.90;;;;;;4971035;28;20118;-67
2021/11/07 09:33:15;;;;;;;11.75;7.20;;;5.50;99.90;;;;;;4961907;28;20449;-67
2021/11/07 09:38:40;;;;;;;9.65;6.63;;;5.50;99.90;;;;;;4970976;28;20054;-67
2021/11/07 09:41:17;;;;;;;9.95;6.20;;;5.50;99.90;;;;;;4969185;28;20033;-67
2021/11/07 09:43:46;;;;;;;10.55;6.78;;;5.60;99.90;;;;;;4972172;28;20530;-67
2021/11/07 09:46:36;;;;;;;10.13;6.85;;;5.60;99.90;;;;;;4963489;28;20041;-67
2021/11/07 09:49:20;;;;;;;11.10;6.60;;;5.70;99.90;;;;;;4972078;28;20070;-68
2021/11/07 09:51:54;;;;;;;10.77;6.65;;;5.80;99.90;;;;;;4972146;28;20015;-67
2021/11/07 09:54:20;;;;;;;9.93;6.13;;;5.80;99.90;;;;;;4972383;28;20475;-67
2021/11/07 09:56:50;;;;;;;8.43;6.20;;;5.80;99.90;;;;;;4972655;28;20030;-67
2021/11/07 09:59:17;;;;;;;8.77;5.97;;;5.90;99.90;;;;;;4969152;28;20066;-67
2021/11/07 10:01:44;;;;;;;6.97;5.35;;;5.90;99.90;;;;;;4973715;28;20035;-67
2021/11/07 10:04:11;;;;;;;10.13;5.78;;;5.90;99.90;;;;;;4971657;28;20395;-66
2021/11/07 10:06:50;;;;;;;8.40;5.65;;;6.00;99.90;;;;;;4973627;28;20447;-67
2021/11/07 10:09:39;;;;;;;9.35;5.82;;;6.00;99.90;;;;;;4972113;28;20081;-67
2021/11/07 10:12:13;;;;;;;9.18;6.30;;;6.10;99.90;;;;;;4974166;28;20018;-67
2021/11/07 10:14:55;;;;;;;8.43;6.10;;;6.10;99.90;;;;;;4973529;28;20530;-67
2021/11/07 10:17:38;;;;;;;9.10;5.43;;;6.20;99.90;;;;;;4974185;28;20026;-67
2021/11/07 10:23:10;;;;;;;9.25;6.15;;;6.20;99.90;;;;;;4973298;28;20034;-68
2021/11/07 10:25:44;;;;;;;6.95;4.85;;;6.30;99.90;;;;;;4988291;28;20118;-67
2021/11/07 10:28:25;;;;;;;7.60;5.50;;;6.30;99.90;;;;;;4974124;28;20033;-67
2021/11/07 10:31:08;;;;;;;7.05;4.95;;;6.30;99.90;;;;;;4966562;28;20407;-67
2021/11/07 10:39:21;;;;;;;7.47;5.18;;;6.50;99.90;;;;;;4973570;28;20038;-67
2021/11/07 10:45:12;;;;;;;6.75;4.80;;;6.60;99.90;;;;;;4972763;28;20031;-67
2021/11/07 10:53:06;;;;;;;8.45;5.70;;;6.80;99.90;;;;;;4961780;28;20041;-67
2021/11/07 10:55:34;;;;;;;8.30;5.70;;;6.80;99.90;;;;;;4972470;28;20053;-67
2021/11/07 10:58:04;;;;;;;8.23;5.35;;;6.90;99.90;;;;;;4974075;28;20596;-68
2021/11/07 11:00:35;;;;;;;11.63;7.28;;;7.00;99.90;;;;;;4973172;28;20115;-67
2021/11/07 11:03:05;;;;;;;10.85;6.18;;;7.00;99.90;;;;;;4971530;28;20037;-67
2021/11/07 11:05:43;;;;;;;6.10;4.53;;;7.10;99.90;;;;;;4973421;28;20066;-67
2021/11/07 11:08:16;;;;;;;8.32;5.20;;;7.10;99.90;;;;;;4973234;28;20038;-67
2021/11/07 11:22:08;;;;;;;8.15;5.32;;;7.40;99.90;;;;;;5010246;28;20056;-72
2021/11/07 11:35:11;;;;;;;5.35;3.80;;;7.70;99.90;;;;;;5012750;28;20096;-72
2021/11/07 11:43:18;;;;;;;3.60;2.63;;;7.80;99.90;;;;;;4992602;28;20026;-71
2021/11/07 11:45:46;;;;;;;5.68;3.72;;;7.80;99.90;;;;;;4985495;28;20116;-71
2021/11/07 11:57:42;;;;;;;3.00;2.65;;;7.90;99.90;;;;;;5011779;28;20058;-71
2021/11/07 12:05:44;;;;;;;3.00;2.47;;;7.80;99.90;;;;;;5004183;28;20441;-72
2021/11/07 12:11:12;;;;;;;8.50;3.70;;;7.90;99.90;;;;;;5011509;28;20044;-72
2021/11/07 12:13:44;;;;;;;5.53;3.42;;;7.90;99.90;;;;;;5009127;28;20548;-72
2021/11/07 12:16:16;;;;;;;6.18;3.40;;;7.90;99.90;;;;;;5009935;28;20034;-72
2021/11/07 12:18:57;;;;;;;;;;;7.90;99.90;;;;;;4999295;28;20382;-72
2021/11/07 12:21:23;;;;;;;4.43;3.38;;;7.90;99.90;;;;;;5009624;28;19972;-72
2021/11/07 12:24:06;;;;;;;7.35;4.28;;;7.90;99.90;;;;;;5007169;28;20053;-72
2021/11/07 12:26:31;;;;;;;5.18;3.45;;;7.90;99.90;;;;;;4991156;28;20077;-72
2021/11/07 12:28:59;;;;;;;5.63;3.70;;;7.90;99.90;;;;;;5004190;28;20562;-72
2021/11/07 12:31:25;;;;;;;9.30;4.72;;;7.90;99.90;;;;;;4989481;28;20161;-72
2021/11/07 12:34:05;;;;;;;5.47;4.50;;;7.90;99.90;;;;;;5000687;28;20421;-72
2021/11/07 12:42:26;;;;;;;5.38;3.67;;;8.10;99.90;;;;;;4995745;28;20041;-73
2021/11/07 12:44:54;;;;;;;3.97;3.13;;;8.20;99.90;;;;;;4977995;28;20030;-73
2021/11/07 12:47:27;;;;;;;5.35;3.67;;;8.30;99.90;;;;;;4977187;28;20029;-72
2021/11/07 12:50:04;;;;;;;3.63;3.00;;;8.30;99.90;;;;;;4984966;28;20105;-71
2021/11/07 12:52:29;;;;;;;4.20;2.83;;;8.30;99.90;;;;;;4995264;28;20049;-71
2021/11/07 12:54:55;;;;;;;3.72;3.00;;;8.40;99.90;;;;;;5003038;28;20022;-71
2021/11/07 12:57:22;;;;;;;4.20;3.08;;;8.40;99.90;;;;;;4995055;28;20124;-71
2021/11/07 12:59:51;;;;;;;4.07;3.20;;;8.30;99.90;;;;;;4994220;28;20026;-72
2021/11/07 13:02:34;;;;;;;5.60;2.80;;;8.30;99.90;;;;;;4975932;28;20125;-71
2021/11/07 13:05:32;;;;;;;4.03;3.03;;;8.30;99.90;;;;;;4989038;28;20035;-71
2021/11/07 13:08:05;;;;;;;4.50;3.17;;;8.20;99.90;;;;;;5005168;28;20153;-71
2021/11/07 13:11:22;;;;;;;4.20;3.80;;;8.30;99.90;;;;;;4999598;28;20057;-71
2021/11/07 13:13:45;;;;;;;6.45;4.18;;;8.30;99.90;;;;;;4997595;28;20046;-71
2021/11/07 13:27:27;;;;;;;3.15;2.58;;;8.20;99.90;;;;;;5010536;28;20133;-72
2021/11/07 13:30:12;;;;;;;2.88;2.38;;;8.10;99.90;;;;;;5001236;28;20037;-72
2021/11/07 13:32:39;;;;;;;3.30;3.00;;;8.10;99.90;;;;;;4989458;28;20026;-71
2021/11/07 13:35:04;;;;;;;2.80;2.35;;;8.10;99.90;;;;;;4993881;28;20045;-73
2021/11/07 13:37:54;;;;;;;2.42;2.17;;;8.20;99.90;;;;;;5014579;28;20030;-76
2021/11/07 13:40:28;;;;;;;2.47;2.13;;;8.10;99.90;;;;;;4980884;28;20117;-72
2021/11/07 13:43:14;;;;;;;3.72;2.63;;;8.10;99.90;;;;;;4993953;28;20034;-71
2021/11/07 13:45:43;;;;;;;3.08;2.17;;;8.10;99.90;;;;;;5008110;28;20465;-70
2021/11/07 13:48:22;;;;;;;3.03;2.72;;;8.10;99.90;;;;;;5012144;28;20026;-71
2021/11/07 13:50:51;;;;;;;1.95;1.77;;;8.10;99.90;;;;;;4995357;28;20022;-71
2021/11/07 13:53:38;;;;;;;4.15;3.00;;;8.10;99.90;;;;;;4990549;28;20378;-72
2021/11/07 13:56:07;;;;;;;2.80;1.85;;;8.00;99.90;;;;;;4992155;28;20435;-72
2021/11/07 13:58:37;;;;;;;3.35;2.20;;;8.00;99.90;;;;;;5013367;28;20036;-72
2021/11/07 14:01:07;;;;;;;3.22;2.92;;;7.90;99.90;;;;;;5001680;28;20030;-72
2021/11/07 14:03:33;;;;;;;3.97;3.10;;;8.00;99.90;;;;;;5008225;28;20129;-72
2021/11/07 14:09:01;;;;;;;4.40;3.40;;;7.90;99.90;;;;;;5012667;28;20514;-71
2021/11/07 14:11:28;;;;;;;4.05;2.50;;;7.90;99.90;;;;;;4986621;28;20478;-71
2021/11/07 14:13:57;;;;;;;2.65;2.22;;;7.90;99.90;;;;;;5010307;28;20081;-71
2021/11/07 14:16:47;;;;;;;2.88;2.30;;;7.90;99.90;;;;;;5007973;28;20034;-72
2021/11/07 14:19:14;;;;;;;2.03;1.90;;;7.90;99.90;;;;;;5004940;28;20057;-72
2021/11/07 14:21:43;;;;;;;4.88;2.53;;;7.90;99.90;;;;;;5013651;28;20048;-71
2021/11/07 14:24:17;;;;;;;1.77;1.67;;;7.90;99.90;;;;;;5008343;28;20029;-71
2021/11/07 14:26:50;;;;;;;2.90;1.73;;;7.90;99.90;;;;;;5005192;28;20022;-70
2021/11/07 14:29:28;;;;;;;2.67;2.47;;;7.90;99.90;;;;;;5009912;28;20033;-70
2021/11/07 14:40:14;;;;;;;2.22;2.03;;;7.90;99.90;;;;;;4999547;28;20042;-71
2021/11/07 14:47:49;;;;;;;2.78;2.30;;;7.90;99.90;;;;;;4999964;28;20075;-71
2021/11/07 14:52:57;;;;;;;2.13;2.00;;;7.90;99.90;;;;;;4993464;28;20145;-71
2021/11/07 14:58:35;;;;;;;2.47;1.80;;;7.90;99.90;;;;;;5005721;28;20032;-71
2021/11/07 15:01:23;;;;;;;3.35;1.90;;;7.90;99.90;;;;;;4966390;28;20041;-71
2021/11/07 15:04:05;;;;;;;3.33;2.10;;;7.90;99.90;;;;;;4997324;28;20076;-71
2021/11/07 15:06:43;;;;;;;2.57;1.90;;;7.80;99.90;;;;;;5011503;28;20104;-72
2021/11/07 15:09:34;;;;;;;2.80;1.80;;;7.80;99.90;;;;;;5004430;28;20076;-70
2021/11/07 15:12:23;;;;;;;3.03;2.00;;;7.80;99.90;;;;;;4997597;28;20085;-70
2021/11/07 15:17:56;;;;;;;4.07;2.97;;;7.80;99.90;;;;;;5011892;28;20516;-70
2021/11/07 15:20:50;;;;;;;7.88;7.22;;;7.70;99.90;;;;;;4997612;28;20145;-70
2021/11/07 15:23:32;;;;;;;4.45;3.75;;;7.70;99.90;;;;;;4986727;28;20037;-70
2021/11/07 15:26:09;;;;;;;4.57;2.60;;;7.70;99.90;;;;;;4999301;28;20022;-70
2021/11/07 15:28:35;;;;;;;3.33;2.78;;;7.70;99.90;;;;;;5007889;28;20087;-70
2021/11/07 15:31:01;;;;;;;3.65;2.33;;;7.60;99.90;;;;;;5007395;28;20467;-72
2021/11/07 15:33:26;;;;;;;2.55;2.35;;;7.60;99.90;;;;;;4997570;28;20136;-69
2021/11/07 15:35:54;;;;;;;3.63;2.47;;;7.60;99.90;;;;;;5010396;28;20109;-71
2021/11/07 15:38:25;;;;;;;3.95;3.00;;;7.60;99.90;;;;;;5010400;28;20494;-69
2021/11/07 15:40:53;;;;;;;3.58;2.72;;;7.60;99.90;;;;;;5008030;28;20034;-70
2021/11/07 15:43:22;;;;;;;3.45;2.60;;;7.60;99.90;;;;;;4992925;28;20030;-69
2021/11/07 15:48:29;;;;;;;2.72;2.17;;;7.50;99.90;;;;;;5007505;28;20080;-71
2021/11/07 15:59:01;;;;;;;4.10;2.75;;;7.50;99.90;;;;;;5009426;28;20037;-71
2021/11/07 16:04:15;;;;;;;6.32;4.28;;;7.50;99.90;;;;;;5008132;28;20029;-70